ESN weather

Easton Newnam Field
Easton, Maryland, United States

Public forecast

Using degrees Fahrenheit for public forecast. Weather courtesy of forecast.io.

Current aviation weather report (METAR) for Easton Newnam Field

Retrieved 2020/08/06 15:45 UTC (51 minutes ago):

KESN 061545Z 05006KT 10SM SKC 27/22 A3013

Closest aviation forecast (TAF) to Easton Newnam Field

Closest forecast is Dover Air Force Base, 34.3 nm (63.5 km) NE. Retrieved 2020/08/06 16:37 UTC (0 seconds ago):

TAF KDOV 061615Z 0616/0722 09012KT 9999 BKN012 QNH3005INS BECMG 0701/0702 24012KT 4800 -SHRA BKN010 QNH3000INS TEMPO 0705/0709 24015G25KT 3200 -TSRA BKN010CB BECMG 0709/0710 09009KT 9999 NSW SCT011 QNH3001INS TX27/0716Z TN22/0708Z